sensor_id;sensor_type;location;lat;lon;timestamp;P1;durP1;ratioP1;P2;durP2;ratioP2
77010;SDS011;65945;53.148;17.956;2023-09-18T00:00:19;13.80;;;9.10;;
77010;SDS011;65945;53.148;17.956;2023-09-18T00:03:07;13.80;;;9.00;;
77010;SDS011;65945;53.148;17.956;2023-09-18T00:05:34;14.80;;;9.10;;
77010;SDS011;65945;53.148;17.956;2023-09-18T00:08:01;13.50;;;9.90;;
77010;SDS011;65945;53.148;17.956;2023-09-18T00:10:30;14.90;;;9.10;;
77010;SDS011;65945;53.148;17.956;2023-09-18T00:12:57;12.80;;;8.90;;
77010;SDS011;65945;53.148;17.956;2023-09-18T00:15:24;17.60;;;9.20;;
77010;SDS011;65945;53.148;17.956;2023-09-18T00:17:51;18.20;;;10.00;;
77010;SDS011;65945;53.148;17.956;2023-09-18T00:20:18;12.00;;;9.50;;
77010;SDS011;65945;53.148;17.956;2023-09-18T00:22:45;15.70;;;10.10;;
77010;SDS011;65945;53.148;17.956;2023-09-18T00:25:12;12.20;;;9.00;;
77010;SDS011;65945;53.148;17.956;2023-09-18T00:27:40;13.60;;;9.90;;
77010;SDS011;65945;53.148;17.956;2023-09-18T00:30:07;15.30;;;10.00;;
77010;SDS011;65945;53.148;17.956;2023-09-18T00:32:35;17.90;;;10.40;;
77010;SDS011;65945;53.148;17.956;2023-09-18T00:35:01;15.00;;;10.30;;
77010;SDS011;65945;53.148;17.956;2023-09-18T00:37:28;14.00;;;9.80;;
77010;SDS011;65945;53.148;17.956;2023-09-18T00:39:55;14.60;;;9.60;;
77010;SDS011;65945;53.148;17.956;2023-09-18T00:42:22;16.10;;;9.60;;
77010;SDS011;65945;53.148;17.956;2023-09-18T00:44:49;16.50;;;10.60;;
77010;SDS011;65945;53.148;17.956;2023-09-18T00:47:16;16.60;;;10.80;;
77010;SDS011;65945;53.148;17.956;2023-09-18T00:49:44;13.90;;;10.10;;
77010;SDS011;65945;53.148;17.956;2023-09-18T00:52:14;15.70;;;10.40;;
77010;SDS011;65945;53.148;17.956;2023-09-18T00:54:42;15.30;;;10.50;;
77010;SDS011;65945;53.148;17.956;2023-09-18T00:57:10;17.30;;;11.30;;
77010;SDS011;65945;53.148;17.956;2023-09-18T00:59:38;16.10;;;9.90;;
77010;SDS011;65945;53.148;17.956;2023-09-18T01:02:05;17.70;;;10.80;;
77010;SDS011;65945;53.148;17.956;2023-09-18T01:04:32;13.90;;;9.80;;
77010;SDS011;65945;53.148;17.956;2023-09-18T01:07:00;13.50;;;9.50;;
77010;SDS011;65945;53.148;17.956;2023-09-18T01:09:30;18.20;;;9.90;;
77010;SDS011;65945;53.148;17.956;2023-09-18T01:12:15;14.60;;;9.80;;
77010;SDS011;65945;53.148;17.956;2023-09-18T01:17:35;13.80;;;9.90;;
77010;SDS011;65945;53.148;17.956;2023-09-18T01:20:10;15.00;;;10.40;;
77010;SDS011;65945;53.148;17.956;2023-09-18T01:22:37;18.80;;;11.00;;
77010;SDS011;65945;53.148;17.956;2023-09-18T01:25:04;13.80;;;10.50;;
77010;SDS011;65945;53.148;17.956;2023-09-18T01:27:32;17.40;;;10.90;;
77010;SDS011;65945;53.148;17.956;2023-09-18T01:29:59;16.50;;;10.90;;
77010;SDS011;65945;53.148;17.956;2023-09-18T01:32:27;15.10;;;10.40;;
77010;SDS011;65945;53.148;17.956;2023-09-18T01:34:56;16.40;;;10.60;;
77010;SDS011;65945;53.148;17.956;2023-09-18T01:37:26;17.20;;;10.60;;
77010;SDS011;65945;53.148;17.956;2023-09-18T01:39:55;20.20;;;10.70;;
77010;SDS011;65945;53.148;17.956;2023-09-18T01:42:26;16.50;;;10.30;;
77010;SDS011;65945;53.148;17.956;2023-09-18T01:44:53;14.70;;;9.50;;
77010;SDS011;65945;53.148;17.956;2023-09-18T01:47:22;12.60;;;9.40;;
77010;SDS011;65945;53.148;17.956;2023-09-18T01:49:55;17.40;;;10.00;;
77010;SDS011;65945;53.148;17.956;2023-09-18T01:52:21;16.00;;;10.80;;
77010;SDS011;65945;53.148;17.956;2023-09-18T01:54:48;14.30;;;11.30;;
77010;SDS011;65945;53.148;17.956;2023-09-18T01:57:15;17.50;;;11.00;;
77010;SDS011;65945;53.148;17.956;2023-09-18T01:59:41;19.90;;;11.70;;
77010;SDS011;65945;53.148;17.956;2023-09-18T02:02:08;15.40;;;10.60;;
77010;SDS011;65945;53.148;17.956;2023-09-18T02:04:36;15.20;;;11.00;;
77010;SDS011;65945;53.148;17.956;2023-09-18T02:07:03;15.60;;;10.80;;
77010;SDS011;65945;53.148;17.956;2023-09-18T02:09:29;17.10;;;12.00;;
77010;SDS011;65945;53.148;17.956;2023-09-18T02:11:56;16.40;;;11.30;;
77010;SDS011;65945;53.148;17.956;2023-09-18T02:14:23;17.10;;;11.10;;
77010;SDS011;65945;53.148;17.956;2023-09-18T02:16:50;14.90;;;10.80;;
77010;SDS011;65945;53.148;17.956;2023-09-18T02:19:17;15.40;;;10.60;;
77010;SDS011;65945;53.148;17.956;2023-09-18T02:21:46;15.50;;;10.90;;
77010;SDS011;65945;53.148;17.956;2023-09-18T02:24:13;15.40;;;10.80;;
77010;SDS011;65945;53.148;17.956;2023-09-18T02:26:39;15.70;;;10.30;;
77010;SDS011;65945;53.148;17.956;2023-09-18T02:29:07;15.90;;;10.50;;
77010;SDS011;65945;53.148;17.956;2023-09-18T02:31:37;17.10;;;11.10;;
77010;SDS011;65945;53.148;17.956;2023-09-18T02:34:05;18.00;;;11.30;;
77010;SDS011;65945;53.148;17.956;2023-09-18T02:36:33;15.90;;;10.70;;
77010;SDS011;65945;53.148;17.956;2023-09-18T02:39:00;17.10;;;11.60;;
77010;SDS011;65945;53.148;17.956;2023-09-18T02:41:26;16.10;;;11.20;;
77010;SDS011;65945;53.148;17.956;2023-09-18T02:43:53;17.50;;;11.90;;
77010;SDS011;65945;53.148;17.956;2023-09-18T02:46:19;17.10;;;11.90;;
77010;SDS011;65945;53.148;17.956;2023-09-18T02:48:46;17.60;;;12.30;;
77010;SDS011;65945;53.148;17.956;2023-09-18T02:51:13;16.50;;;11.10;;
77010;SDS011;65945;53.148;17.956;2023-09-18T02:53:39;14.10;;;11.20;;
77010;SDS011;65945;53.148;17.956;2023-09-18T02:56:06;19.40;;;11.10;;
77010;SDS011;65945;53.148;17.956;2023-09-18T02:58:34;16.40;;;11.70;;
77010;SDS011;65945;53.148;17.956;2023-09-18T03:01:00;18.50;;;11.80;;
77010;SDS011;65945;53.148;17.956;2023-09-18T03:03:30;17.10;;;10.90;;
77010;SDS011;65945;53.148;17.956;2023-09-18T03:06:01;16.60;;;11.30;;
77010;SDS011;65945;53.148;17.956;2023-09-18T03:08:29;18.80;;;12.30;;
77010;SDS011;65945;53.148;17.956;2023-09-18T03:10:57;20.00;;;12.10;;
77010;SDS011;65945;53.148;17.956;2023-09-18T03:13:26;18.20;;;11.70;;
77010;SDS011;65945;53.148;17.956;2023-09-18T03:15:54;17.80;;;11.20;;
77010;SDS011;65945;53.148;17.956;2023-09-18T03:18:23;19.80;;;11.60;;
77010;SDS011;65945;53.148;17.956;2023-09-18T03:20:49;20.70;;;11.60;;
77010;SDS011;65945;53.148;17.956;2023-09-18T03:23:16;16.60;;;11.60;;
77010;SDS011;65945;53.148;17.956;2023-09-18T03:25:43;17.70;;;11.50;;
77010;SDS011;65945;53.148;17.956;2023-09-18T03:28:10;19.30;;;11.70;;
77010;SDS011;65945;53.148;17.956;2023-09-18T03:30:37;17.50;;;11.30;;
77010;SDS011;65945;53.148;17.956;2023-09-18T03:33:03;17.90;;;11.70;;
77010;SDS011;65945;53.148;17.956;2023-09-18T03:35:31;19.60;;;12.10;;
77010;SDS011;65945;53.148;17.956;2023-09-18T03:37:58;16.70;;;12.10;;
77010;SDS011;65945;53.148;17.956;2023-09-18T03:40:26;17.40;;;12.00;;
77010;SDS011;65945;53.148;17.956;2023-09-18T03:42:52;18.80;;;12.30;;
77010;SDS011;65945;53.148;17.956;2023-09-18T03:45:19;18.10;;;12.60;;
77010;SDS011;65945;53.148;17.956;2023-09-18T03:47:47;19.00;;;12.90;;
77010;SDS011;65945;53.148;17.956;2023-09-18T03:50:16;20.20;;;13.30;;
77010;SDS011;65945;53.148;17.956;2023-09-18T03:52:43;19.00;;;12.40;;
77010;SDS011;65945;53.148;17.956;2023-09-18T03:55:09;20.60;;;13.00;;
77010;SDS011;65945;53.148;17.956;2023-09-18T03:57:36;20.50;;;14.50;;
77010;SDS011;65945;53.148;17.956;2023-09-18T04:00:06;22.50;;;15.20;;
77010;SDS011;65945;53.148;17.956;2023-09-18T04:02:38;30.60;;;15.40;;
77010;SDS011;65945;53.148;17.956;2023-09-18T04:05:05;39.90;;;15.80;;
77010;SDS011;65945;53.148;17.956;2023-09-18T04:07:33;36.50;;;16.40;;
77010;SDS011;65945;53.148;17.956;2023-09-18T04:10:01;25.40;;;14.70;;
77010;SDS011;65945;53.148;17.956;2023-09-18T04:12:29;27.90;;;15.30;;
77010;SDS011;65945;53.148;17.956;2023-09-18T04:14:56;23.80;;;15.20;;
77010;SDS011;65945;53.148;17.956;2023-09-18T04:17:22;23.70;;;15.00;;
77010;SDS011;65945;53.148;17.956;2023-09-18T04:19:49;25.00;;;15.60;;
77010;SDS011;65945;53.148;17.956;2023-09-18T04:22:16;25.60;;;15.80;;
77010;SDS011;65945;53.148;17.956;2023-09-18T04:24:42;27.00;;;17.20;;
77010;SDS011;65945;53.148;17.956;2023-09-18T04:27:10;31.90;;;18.10;;
77010;SDS011;65945;53.148;17.956;2023-09-18T04:29:36;36.00;;;18.70;;
77010;SDS011;65945;53.148;17.956;2023-09-18T04:32:03;32.80;;;19.40;;
77010;SDS011;65945;53.148;17.956;2023-09-18T04:34:31;40.30;;;23.20;;
77010;SDS011;65945;53.148;17.956;2023-09-18T04:36:58;34.20;;;21.80;;
77010;SDS011;65945;53.148;17.956;2023-09-18T04:39:25;44.90;;;22.30;;
77010;SDS011;65945;53.148;17.956;2023-09-18T04:41:51;41.90;;;23.40;;
77010;SDS011;65945;53.148;17.956;2023-09-18T04:44:18;57.60;;;24.60;;
77010;SDS011;65945;53.148;17.956;2023-09-18T04:46:45;46.90;;;26.10;;
77010;SDS011;65945;53.148;17.956;2023-09-18T04:49:12;46.60;;;24.10;;
77010;SDS011;65945;53.148;17.956;2023-09-18T04:51:39;48.90;;;24.00;;
77010;SDS011;65945;53.148;17.956;2023-09-18T04:54:06;45.90;;;22.70;;
77010;SDS011;65945;53.148;17.956;2023-09-18T04:56:33;43.50;;;23.20;;
77010;SDS011;65945;53.148;17.956;2023-09-18T04:59:00;43.30;;;21.70;;
77010;SDS011;65945;53.148;17.956;2023-09-18T05:01:27;36.10;;;19.10;;
77010;SDS011;65945;53.148;17.956;2023-09-18T05:03:54;31.00;;;20.10;;
77010;SDS011;65945;53.148;17.956;2023-09-18T05:06:20;29.40;;;18.70;;
77010;SDS011;65945;53.148;17.956;2023-09-18T05:08:47;30.50;;;18.20;;
77010;SDS011;65945;53.148;17.956;2023-09-18T05:11:14;32.40;;;18.80;;
77010;SDS011;65945;53.148;17.956;2023-09-18T05:13:40;38.50;;;19.80;;
77010;SDS011;65945;53.148;17.956;2023-09-18T05:16:07;33.40;;;19.60;;
77010;SDS011;65945;53.148;17.956;2023-09-18T05:18:33;34.00;;;18.70;;
77010;SDS011;65945;53.148;17.956;2023-09-18T05:21:00;31.00;;;18.90;;
77010;SDS011;65945;53.148;17.956;2023-09-18T05:23:28;28.80;;;17.40;;
77010;SDS011;65945;53.148;17.956;2023-09-18T05:25:55;28.30;;;17.00;;
77010;SDS011;65945;53.148;17.956;2023-09-18T05:28:21;32.30;;;18.10;;
77010;SDS011;65945;53.148;17.956;2023-09-18T05:30:48;27.20;;;17.10;;
77010;SDS011;65945;53.148;17.956;2023-09-18T05:33:14;32.00;;;19.30;;
77010;SDS011;65945;53.148;17.956;2023-09-18T05:35:42;33.30;;;18.30;;
77010;SDS011;65945;53.148;17.956;2023-09-18T05:38:11;36.20;;;18.20;;
77010;SDS011;65945;53.148;17.956;2023-09-18T05:40:40;35.20;;;18.80;;
77010;SDS011;65945;53.148;17.956;2023-09-18T05:43:06;28.30;;;17.50;;
77010;SDS011;65945;53.148;17.956;2023-09-18T05:45:34;33.80;;;17.90;;
77010;SDS011;65945;53.148;17.956;2023-09-18T05:48:00;31.30;;;17.50;;
77010;SDS011;65945;53.148;17.956;2023-09-18T05:50:30;31.20;;;16.50;;
77010;SDS011;65945;53.148;17.956;2023-09-18T05:52:58;25.90;;;16.30;;
77010;SDS011;65945;53.148;17.956;2023-09-18T05:55:26;27.60;;;17.10;;
77010;SDS011;65945;53.148;17.956;2023-09-18T05:57:54;38.70;;;18.10;;
77010;SDS011;65945;53.148;17.956;2023-09-18T06:00:21;30.20;;;17.10;;
77010;SDS011;65945;53.148;17.956;2023-09-18T06:02:48;30.00;;;15.90;;
77010;SDS011;65945;53.148;17.956;2023-09-18T06:05:15;26.30;;;16.60;;
77010;SDS011;65945;53.148;17.956;2023-09-18T06:07:42;27.60;;;17.10;;
77010;SDS011;65945;53.148;17.956;2023-09-18T06:10:09;24.70;;;16.40;;
77010;SDS011;65945;53.148;17.956;2023-09-18T06:12:39;29.70;;;16.50;;
77010;SDS011;65945;53.148;17.956;2023-09-18T06:15:06;34.50;;;15.40;;
77010;SDS011;65945;53.148;17.956;2023-09-18T06:17:37;27.00;;;15.80;;
77010;SDS011;65945;53.148;17.956;2023-09-18T06:20:06;27.10;;;15.30;;
77010;SDS011;65945;53.148;17.956;2023-09-18T06:22:39;25.40;;;15.30;;
77010;SDS011;65945;53.148;17.956;2023-09-18T06:25:07;24.00;;;14.10;;
77010;SDS011;65945;53.148;17.956;2023-09-18T06:27:36;29.40;;;15.40;;
77010;SDS011;65945;53.148;17.956;2023-09-18T06:30:04;22.70;;;14.90;;
77010;SDS011;65945;53.148;17.956;2023-09-18T06:32:32;24.00;;;14.80;;
77010;SDS011;65945;53.148;17.956;2023-09-18T06:34:59;24.50;;;14.40;;
77010;SDS011;65945;53.148;17.956;2023-09-18T06:37:26;21.30;;;14.40;;
77010;SDS011;65945;53.148;17.956;2023-09-18T06:39:53;20.80;;;14.30;;
77010;SDS011;65945;53.148;17.956;2023-09-18T06:42:20;30.70;;;14.40;;
77010;SDS011;65945;53.148;17.956;2023-09-18T06:44:53;23.00;;;13.50;;
77010;SDS011;65945;53.148;17.956;2023-09-18T06:47:19;24.00;;;13.50;;
77010;SDS011;65945;53.148;17.956;2023-09-18T06:49:46;21.80;;;14.50;;
77010;SDS011;65945;53.148;17.956;2023-09-18T06:52:13;19.90;;;14.70;;
77010;SDS011;65945;53.148;17.956;2023-09-18T06:54:40;21.10;;;14.30;;
77010;SDS011;65945;53.148;17.956;2023-09-18T06:57:07;19.50;;;13.70;;
77010;SDS011;65945;53.148;17.956;2023-09-18T06:59:33;24.10;;;13.20;;
77010;SDS011;65945;53.148;17.956;2023-09-18T07:02:00;23.20;;;12.80;;
77010;SDS011;65945;53.148;17.956;2023-09-18T07:04:27;20.40;;;13.80;;
77010;SDS011;65945;53.148;17.956;2023-09-18T07:06:54;19.30;;;12.80;;
77010;SDS011;65945;53.148;17.956;2023-09-18T07:09:22;22.60;;;13.80;;
77010;SDS011;65945;53.148;17.956;2023-09-18T07:11:52;31.40;;;14.00;;
77010;SDS011;65945;53.148;17.956;2023-09-18T07:14:18;22.90;;;13.10;;
77010;SDS011;65945;53.148;17.956;2023-09-18T07:16:45;50.00;;;13.90;;
77010;SDS011;65945;53.148;17.956;2023-09-18T07:19:12;26.70;;;13.40;;
77010;SDS011;65945;53.148;17.956;2023-09-18T07:21:43;19.80;;;11.70;;
77010;SDS011;65945;53.148;17.956;2023-09-18T07:24:10;21.00;;;11.90;;
77010;SDS011;65945;53.148;17.956;2023-09-18T07:26:46;19.10;;;12.70;;
77010;SDS011;65945;53.148;17.956;2023-09-18T07:29:14;18.90;;;11.80;;
77010;SDS011;65945;53.148;17.956;2023-09-18T07:31:42;20.90;;;12.10;;
77010;SDS011;65945;53.148;17.956;2023-09-18T07:34:10;16.20;;;11.00;;
77010;SDS011;65945;53.148;17.956;2023-09-18T07:36:37;18.60;;;11.20;;
77010;SDS011;65945;53.148;17.956;2023-09-18T07:39:03;17.00;;;10.20;;
77010;SDS011;65945;53.148;17.956;2023-09-18T07:41:31;21.20;;;11.00;;
77010;SDS011;65945;53.148;17.956;2023-09-18T07:43:58;18.10;;;11.20;;
77010;SDS011;65945;53.148;17.956;2023-09-18T07:46:25;26.80;;;10.80;;
77010;SDS011;65945;53.148;17.956;2023-09-18T07:48:52;14.50;;;10.10;;
77010;SDS011;65945;53.148;17.956;2023-09-18T07:51:18;19.10;;;10.30;;
77010;SDS011;65945;53.148;17.956;2023-09-18T07:53:45;14.60;;;9.00;;
77010;SDS011;65945;53.148;17.956;2023-09-18T07:56:12;19.80;;;10.00;;
77010;SDS011;65945;53.148;17.956;2023-09-18T07:58:38;17.70;;;9.80;;
77010;SDS011;65945;53.148;17.956;2023-09-18T08:01:05;15.20;;;10.20;;
77010;SDS011;65945;53.148;17.956;2023-09-18T08:03:32;20.90;;;9.10;;
77010;SDS011;65945;53.148;17.956;2023-09-18T08:05:59;19.90;;;9.50;;
77010;SDS011;65945;53.148;17.956;2023-09-18T08:08:26;17.50;;;9.80;;
77010;SDS011;65945;53.148;17.956;2023-09-18T08:10:53;13.70;;;9.50;;
77010;SDS011;65945;53.148;17.956;2023-09-18T08:13:20;17.10;;;9.30;;
77010;SDS011;65945;53.148;17.956;2023-09-18T08:15:47;17.00;;;9.20;;
77010;SDS011;65945;53.148;17.956;2023-09-18T08:18:13;24.70;;;9.70;;
77010;SDS011;65945;53.148;17.956;2023-09-18T08:20:41;11.20;;;7.50;;
77010;SDS011;65945;53.148;17.956;2023-09-18T08:23:09;15.20;;;8.30;;
77010;SDS011;65945;53.148;17.956;2023-09-18T08:25:36;12.00;;;8.00;;
77010;SDS011;65945;53.148;17.956;2023-09-18T08:28:03;12.10;;;7.80;;
77010;SDS011;65945;53.148;17.956;2023-09-18T08:30:30;14.70;;;8.20;;
77010;SDS011;65945;53.148;17.956;2023-09-18T08:32:57;14.90;;;8.20;;
77010;SDS011;65945;53.148;17.956;2023-09-18T08:35:24;13.30;;;7.80;;
77010;SDS011;65945;53.148;17.956;2023-09-18T08:37:55;17.10;;;8.00;;
77010;SDS011;65945;53.148;17.956;2023-09-18T08:40:22;12.50;;;8.20;;
77010;SDS011;65945;53.148;17.956;2023-09-18T08:42:50;13.70;;;7.90;;
77010;SDS011;65945;53.148;17.956;2023-09-18T08:45:25;15.80;;;7.80;;
77010;SDS011;65945;53.148;17.956;2023-09-18T08:48:01;10.90;;;7.30;;
77010;SDS011;65945;53.148;17.956;2023-09-18T08:50:28;10.40;;;7.60;;
77010;SDS011;65945;53.148;17.956;2023-09-18T08:52:55;12.00;;;7.10;;
77010;SDS011;65945;53.148;17.956;2023-09-18T08:55:23;15.10;;;7.50;;
77010;SDS011;65945;53.148;17.956;2023-09-18T08:57:50;12.00;;;7.10;;
77010;SDS011;65945;53.148;17.956;2023-09-18T09:00:19;11.10;;;7.00;;
77010;SDS011;65945;53.148;17.956;2023-09-18T09:02:46;11.20;;;7.10;;
77010;SDS011;65945;53.148;17.956;2023-09-18T09:05:17;11.10;;;6.50;;
77010;SDS011;65945;53.148;17.956;2023-09-18T09:07:44;14.10;;;6.90;;
77010;SDS011;65945;53.148;17.956;2023-09-18T09:10:10;9.10;;;6.00;;
77010;SDS011;65945;53.148;17.956;2023-09-18T09:15:21;13.60;;;6.30;;
77010;SDS011;65945;53.148;17.956;2023-09-18T09:17:50;38.00;;;6.90;;
77010;SDS011;65945;53.148;17.956;2023-09-18T09:20:18;10.40;;;5.50;;
77010;SDS011;65945;53.148;17.956;2023-09-18T09:22:45;12.40;;;5.60;;
77010;SDS011;65945;53.148;17.956;2023-09-18T09:25:22;13.90;;;5.60;;
77010;SDS011;65945;53.148;17.956;2023-09-18T09:27:55;7.30;;;5.10;;
77010;SDS011;65945;53.148;17.956;2023-09-18T09:30:23;18.80;;;5.70;;
77010;SDS011;65945;53.148;17.956;2023-09-18T09:32:52;14.30;;;5.40;;
77010;SDS011;65945;53.148;17.956;2023-09-18T09:35:20;7.50;;;4.60;;
77010;SDS011;65945;53.148;17.956;2023-09-18T09:37:57;9.00;;;5.20;;
77010;SDS011;65945;53.148;17.956;2023-09-18T09:40:27;9.60;;;5.00;;
77010;SDS011;65945;53.148;17.956;2023-09-18T09:42:56;10.60;;;5.00;;
77010;SDS011;65945;53.148;17.956;2023-09-18T09:45:31;9.20;;;4.60;;
77010;SDS011;65945;53.148;17.956;2023-09-18T09:48:05;7.20;;;4.50;;
77010;SDS011;65945;53.148;17.956;2023-09-18T09:50:33;9.40;;;4.30;;
77010;SDS011;65945;53.148;17.956;2023-09-18T09:53:12;9.30;;;4.50;;
77010;SDS011;65945;53.148;17.956;2023-09-18T09:55:40;6.40;;;4.00;;
77010;SDS011;65945;53.148;17.956;2023-09-18T09:58:08;16.40;;;4.70;;
77010;SDS011;65945;53.148;17.956;2023-09-18T10:00:46;9.50;;;4.00;;
77010;SDS011;65945;53.148;17.956;2023-09-18T10:03:18;8.10;;;3.90;;
77010;SDS011;65945;53.148;17.956;2023-09-18T10:05:47;6.80;;;4.00;;
77010;SDS011;65945;53.148;17.956;2023-09-18T10:08:21;9.00;;;4.10;;
77010;SDS011;65945;53.148;17.956;2023-09-18T10:10:51;9.30;;;3.50;;
77010;SDS011;65945;53.148;17.956;2023-09-18T10:15:58;195.80;;;10.30;;
77010;SDS011;65945;53.148;17.956;2023-09-18T10:18:53;159.80;;;10.70;;
77010;SDS011;65945;53.148;17.956;2023-09-18T10:21:27;13.70;;;3.70;;
77010;SDS011;65945;53.148;17.956;2023-09-18T10:24:08;10.00;;;3.80;;
77010;SDS011;65945;53.148;17.956;2023-09-18T10:26:47;11.50;;;3.50;;
77010;SDS011;65945;53.148;17.956;2023-09-18T10:29:15;11.40;;;3.80;;
77010;SDS011;65945;53.148;17.956;2023-09-18T10:31:44;14.70;;;4.20;;
77010;SDS011;65945;53.148;17.956;2023-09-18T10:34:13;5.10;;;3.30;;
77010;SDS011;65945;53.148;17.956;2023-09-18T10:36:42;9.40;;;3.70;;
77010;SDS011;65945;53.148;17.956;2023-09-18T10:39:10;9.50;;;4.00;;
77010;SDS011;65945;53.148;17.956;2023-09-18T10:41:39;7.70;;;3.90;;
77010;SDS011;65945;53.148;17.956;2023-09-18T10:44:08;9.20;;;3.70;;
77010;SDS011;65945;53.148;17.956;2023-09-18T10:46:37;6.10;;;3.60;;
77010;SDS011;65945;53.148;17.956;2023-09-18T10:49:03;6.60;;;3.80;;
77010;SDS011;65945;53.148;17.956;2023-09-18T10:51:31;15.90;;;4.10;;
77010;SDS011;65945;53.148;17.956;2023-09-18T10:54:00;8.80;;;3.90;;
77010;SDS011;65945;53.148;17.956;2023-09-18T10:56:26;4.80;;;3.60;;
77010;SDS011;65945;53.148;17.956;2023-09-18T10:58:59;8.30;;;3.80;;
77010;SDS011;65945;53.148;17.956;2023-09-18T11:01:27;9.30;;;3.90;;
77010;SDS011;65945;53.148;17.956;2023-09-18T11:03:59;6.10;;;3.60;;
77010;SDS011;65945;53.148;17.956;2023-09-18T11:06:28;22.90;;;4.60;;
77010;SDS011;65945;53.148;17.956;2023-09-18T11:09:02;13.70;;;3.90;;
77010;SDS011;65945;53.148;17.956;2023-09-18T11:11:30;7.10;;;4.10;;
77010;SDS011;65945;53.148;17.956;2023-09-18T11:13:59;7.40;;;3.80;;
77010;SDS011;65945;53.148;17.956;2023-09-18T11:21:40;8.10;;;4.10;;
77010;SDS011;65945;53.148;17.956;2023-09-18T11:24:16;9.20;;;4.30;;
77010;SDS011;65945;53.148;17.956;2023-09-18T11:26:48;11.20;;;4.40;;
77010;SDS011;65945;53.148;17.956;2023-09-18T11:29:21;9.30;;;4.20;;
77010;SDS011;65945;53.148;17.956;2023-09-18T11:31:53;5.70;;;3.90;;
77010;SDS011;65945;53.148;17.956;2023-09-18T11:36:55;6.60;;;4.20;;
77010;SDS011;65945;53.148;17.956;2023-09-18T11:39:56;6.50;;;3.90;;
77010;SDS011;65945;53.148;17.956;2023-09-18T11:42:19;9.30;;;4.30;;
77010;SDS011;65945;53.148;17.956;2023-09-18T11:44:51;6.40;;;4.10;;
77010;SDS011;65945;53.148;17.956;2023-09-18T11:47:19;10.50;;;4.40;;
77010;SDS011;65945;53.148;17.956;2023-09-18T11:49:51;8.20;;;4.10;;
77010;SDS011;65945;53.148;17.956;2023-09-18T11:52:21;8.30;;;4.60;;
77010;SDS011;65945;53.148;17.956;2023-09-18T11:54:49;13.30;;;4.10;;
77010;SDS011;65945;53.148;17.956;2023-09-18T11:57:17;466.80;;;32.80;;
77010;SDS011;65945;53.148;17.956;2023-09-18T11:59:46;15.10;;;3.70;;
77010;SDS011;65945;53.148;17.956;2023-09-18T12:02:26;6.50;;;2.60;;
77010;SDS011;65945;53.148;17.956;2023-09-18T12:05:13;11.00;;;2.70;;
77010;SDS011;65945;53.148;17.956;2023-09-18T12:07:42;6.40;;;2.60;;
77010;SDS011;65945;53.148;17.956;2023-09-18T12:10:12;17.50;;;3.10;;
77010;SDS011;65945;53.148;17.956;2023-09-18T12:12:41;7.80;;;2.80;;
77010;SDS011;65945;53.148;17.956;2023-09-18T12:15:11;6.40;;;2.70;;
77010;SDS011;65945;53.148;17.956;2023-09-18T12:17:38;5.00;;;2.80;;
77010;SDS011;65945;53.148;17.956;2023-09-18T12:20:05;81.40;;;7.40;;
77010;SDS011;65945;53.148;17.956;2023-09-18T12:22:33;7.40;;;3.00;;
77010;SDS011;65945;53.148;17.956;2023-09-18T12:25:09;8.60;;;3.20;;
77010;SDS011;65945;53.148;17.956;2023-09-18T12:27:44;10.50;;;3.50;;
77010;SDS011;65945;53.148;17.956;2023-09-18T12:30:11;6.70;;;2.90;;
77010;SDS011;65945;53.148;17.956;2023-09-18T12:32:41;36.10;;;4.10;;
77010;SDS011;65945;53.148;17.956;2023-09-18T12:35:08;8.70;;;3.10;;
77010;SDS011;65945;53.148;17.956;2023-09-18T12:37:39;8.60;;;3.30;;
77010;SDS011;65945;53.148;17.956;2023-09-18T12:40:20;8.80;;;3.20;;
77010;SDS011;65945;53.148;17.956;2023-09-18T12:42:48;6.10;;;3.70;;
77010;SDS011;65945;53.148;17.956;2023-09-18T12:45:16;10.10;;;3.80;;
77010;SDS011;65945;53.148;17.956;2023-09-18T12:47:43;8.80;;;3.50;;
77010;SDS011;65945;53.148;17.956;2023-09-18T12:50:13;7.90;;;3.50;;
77010;SDS011;65945;53.148;17.956;2023-09-18T12:52:41;9.10;;;3.70;;
77010;SDS011;65945;53.148;17.956;2023-09-18T12:55:08;9.10;;;4.10;;
77010;SDS011;65945;53.148;17.956;2023-09-18T12:57:46;6.20;;;3.30;;
77010;SDS011;65945;53.148;17.956;2023-09-18T13:00:13;16.50;;;4.10;;
77010;SDS011;65945;53.148;17.956;2023-09-18T13:02:44;21.90;;;3.90;;
77010;SDS011;65945;53.148;17.956;2023-09-18T13:05:11;10.60;;;3.30;;
77010;SDS011;65945;53.148;17.956;2023-09-18T13:07:44;9.50;;;3.60;;
77010;SDS011;65945;53.148;17.956;2023-09-18T13:10:11;8.00;;;3.50;;
77010;SDS011;65945;53.148;17.956;2023-09-18T13:12:46;13.70;;;4.20;;
77010;SDS011;65945;53.148;17.956;2023-09-18T13:15:24;103.60;;;7.70;;
77010;SDS011;65945;53.148;17.956;2023-09-18T13:17:53;11.20;;;3.50;;
77010;SDS011;65945;53.148;17.956;2023-09-18T13:20:22;13.40;;;4.10;;
77010;SDS011;65945;53.148;17.956;2023-09-18T13:22:55;7.10;;;3.70;;
77010;SDS011;65945;53.148;17.956;2023-09-18T13:25:28;7.90;;;3.50;;
77010;SDS011;65945;53.148;17.956;2023-09-18T13:27:56;7.50;;;3.80;;
77010;SDS011;65945;53.148;17.956;2023-09-18T13:30:22;6.20;;;3.60;;
77010;SDS011;65945;53.148;17.956;2023-09-18T13:32:49;14.50;;;4.20;;
77010;SDS011;65945;53.148;17.956;2023-09-18T13:35:17;12.30;;;4.00;;
77010;SDS011;65945;53.148;17.956;2023-09-18T13:37:44;7.90;;;3.70;;
77010;SDS011;65945;53.148;17.956;2023-09-18T13:40:12;7.80;;;3.80;;
77010;SDS011;65945;53.148;17.956;2023-09-18T13:42:38;7.60;;;4.00;;
77010;SDS011;65945;53.148;17.956;2023-09-18T13:45:05;5.80;;;3.40;;
77010;SDS011;65945;53.148;17.956;2023-09-18T13:47:33;6.50;;;3.50;;
77010;SDS011;65945;53.148;17.956;2023-09-18T13:50:01;9.60;;;4.50;;
77010;SDS011;65945;53.148;17.956;2023-09-18T13:52:31;5.20;;;3.70;;
77010;SDS011;65945;53.148;17.956;2023-09-18T13:54:59;10.30;;;3.80;;
77010;SDS011;65945;53.148;17.956;2023-09-18T13:57:26;8.90;;;3.90;;
77010;SDS011;65945;53.148;17.956;2023-09-18T13:59:52;8.20;;;3.80;;
77010;SDS011;65945;53.148;17.956;2023-09-18T14:02:19;10.20;;;4.00;;
77010;SDS011;65945;53.148;17.956;2023-09-18T14:04:46;6.50;;;3.50;;
77010;SDS011;65945;53.148;17.956;2023-09-18T14:07:14;10.50;;;3.50;;
77010;SDS011;65945;53.148;17.956;2023-09-18T14:09:40;7.30;;;3.70;;
77010;SDS011;65945;53.148;17.956;2023-09-18T14:12:07;7.40;;;4.00;;
77010;SDS011;65945;53.148;17.956;2023-09-18T14:14:34;5.20;;;3.60;;
77010;SDS011;65945;53.148;17.956;2023-09-18T14:17:02;8.00;;;3.70;;
77010;SDS011;65945;53.148;17.956;2023-09-18T14:19:31;7.20;;;3.30;;
77010;SDS011;65945;53.148;17.956;2023-09-18T14:21:58;7.50;;;3.80;;
77010;SDS011;65945;53.148;17.956;2023-09-18T14:24:30;5.90;;;3.80;;
77010;SDS011;65945;53.148;17.956;2023-09-18T14:26:57;5.60;;;3.60;;
77010;SDS011;65945;53.148;17.956;2023-09-18T14:29:24;5.90;;;3.90;;
77010;SDS011;65945;53.148;17.956;2023-09-18T14:31:50;9.40;;;4.00;;
77010;SDS011;65945;53.148;17.956;2023-09-18T14:34:17;9.20;;;3.90;;
77010;SDS011;65945;53.148;17.956;2023-09-18T14:36:44;5.50;;;3.90;;
77010;SDS011;65945;53.148;17.956;2023-09-18T14:39:10;5.90;;;3.80;;
77010;SDS011;65945;53.148;17.956;2023-09-18T14:41:38;5.50;;;4.10;;